sensor_id;sensor_type;location;lat;lon;timestamp;P1;durP1;ratioP1;P2;durP2;ratioP2
7485;SDS011;3784;54.098;9.998;2023-06-14T00:02:21;21.30;;;19.87;;
7485;SDS011;3784;54.098;9.998;2023-06-14T00:04:48;19.60;;;18.30;;
7485;SDS011;3784;54.098;9.998;2023-06-14T00:07:17;18.87;;;17.50;;
7485;SDS011;3784;54.098;9.998;2023-06-14T00:09:45;17.83;;;16.53;;
7485;SDS011;3784;54.098;9.998;2023-06-14T00:12:11;17.40;;;16.30;;
7485;SDS011;3784;54.098;9.998;2023-06-14T00:14:38;15.87;;;14.63;;
7485;SDS011;3784;54.098;9.998;2023-06-14T00:17:04;17.03;;;15.73;;
7485;SDS011;3784;54.098;9.998;2023-06-14T00:19:33;16.07;;;15.03;;
7485;SDS011;3784;54.098;9.998;2023-06-14T00:22:02;15.97;;;14.87;;
7485;SDS011;3784;54.098;9.998;2023-06-14T00:24:29;14.73;;;13.77;;
7485;SDS011;3784;54.098;9.998;2023-06-14T00:26:56;14.70;;;13.40;;
7485;SDS011;3784;54.098;9.998;2023-06-14T00:29:23;15.83;;;14.93;;
7485;SDS011;3784;54.098;9.998;2023-06-14T00:31:49;14.40;;;13.40;;
7485;SDS011;3784;54.098;9.998;2023-06-14T00:34:16;15.13;;;14.00;;
7485;SDS011;3784;54.098;9.998;2023-06-14T00:36:43;14.73;;;13.73;;
7485;SDS011;3784;54.098;9.998;2023-06-14T00:39:09;14.90;;;13.77;;
7485;SDS011;3784;54.098;9.998;2023-06-14T00:41:36;15.33;;;14.03;;
7485;SDS011;3784;54.098;9.998;2023-06-14T00:44:04;15.00;;;13.60;;
7485;SDS011;3784;54.098;9.998;2023-06-14T00:46:31;15.53;;;14.43;;
7485;SDS011;3784;54.098;9.998;2023-06-14T00:48:58;16.43;;;15.27;;
7485;SDS011;3784;54.098;9.998;2023-06-14T00:51:25;18.00;;;16.80;;
7485;SDS011;3784;54.098;9.998;2023-06-14T00:53:52;17.93;;;16.63;;
7485;SDS011;3784;54.098;9.998;2023-06-14T00:56:19;18.50;;;17.27;;
7485;SDS011;3784;54.098;9.998;2023-06-14T00:58:47;19.50;;;18.10;;
7485;SDS011;3784;54.098;9.998;2023-06-14T01:01:14;21.87;;;20.37;;
7485;SDS011;3784;54.098;9.998;2023-06-14T01:03:40;21.90;;;20.60;;
7485;SDS011;3784;54.098;9.998;2023-06-14T01:06:14;20.27;;;18.93;;
7485;SDS011;3784;54.098;9.998;2023-06-14T01:11:43;23.70;;;22.30;;
7485;SDS011;3784;54.098;9.998;2023-06-14T01:14:17;27.67;;;26.17;;
7485;SDS011;3784;54.098;9.998;2023-06-14T01:16:44;31.17;;;28.87;;
7485;SDS011;3784;54.098;9.998;2023-06-14T01:19:11;31.47;;;29.57;;
7485;SDS011;3784;54.098;9.998;2023-06-14T01:21:40;34.40;;;32.40;;
7485;SDS011;3784;54.098;9.998;2023-06-14T01:24:08;35.63;;;33.63;;
7485;SDS011;3784;54.098;9.998;2023-06-14T01:26:37;35.53;;;33.47;;
7485;SDS011;3784;54.098;9.998;2023-06-14T01:29:05;29.60;;;27.80;;
7485;SDS011;3784;54.098;9.998;2023-06-14T01:31:32;35.43;;;33.43;;
7485;SDS011;3784;54.098;9.998;2023-06-14T01:34:07;36.50;;;34.37;;
7485;SDS011;3784;54.098;9.998;2023-06-14T01:36:35;41.47;;;39.17;;
7485;SDS011;3784;54.098;9.998;2023-06-14T01:39:03;40.10;;;37.63;;
7485;SDS011;3784;54.098;9.998;2023-06-14T01:41:30;54.07;;;51.47;;
7485;SDS011;3784;54.098;9.998;2023-06-14T01:43:57;71.43;;;67.77;;
7485;SDS011;3784;54.098;9.998;2023-06-14T01:46:24;69.23;;;65.90;;
7485;SDS011;3784;54.098;9.998;2023-06-14T01:48:51;62.13;;;59.13;;
7485;SDS011;3784;54.098;9.998;2023-06-14T01:51:18;68.20;;;64.70;;
7485;SDS011;3784;54.098;9.998;2023-06-14T01:53:44;74.37;;;70.73;;
7485;SDS011;3784;54.098;9.998;2023-06-14T01:56:11;85.63;;;81.53;;
7485;SDS011;3784;54.098;9.998;2023-06-14T01:58:38;86.80;;;82.60;;
7485;SDS011;3784;54.098;9.998;2023-06-14T02:01:05;76.57;;;72.67;;
7485;SDS011;3784;54.098;9.998;2023-06-14T02:03:33;81.43;;;77.40;;
7485;SDS011;3784;54.098;9.998;2023-06-14T02:06:00;108.43;;;103.40;;
7485;SDS011;3784;54.098;9.998;2023-06-14T02:08:27;84.70;;;80.47;;
7485;SDS011;3784;54.098;9.998;2023-06-14T02:10:53;86.67;;;82.43;;
7485;SDS011;3784;54.098;9.998;2023-06-14T02:13:20;95.50;;;90.97;;
7485;SDS011;3784;54.098;9.998;2023-06-14T02:15:46;92.67;;;87.93;;
7485;SDS011;3784;54.098;9.998;2023-06-14T02:18:17;101.40;;;96.73;;
7485;SDS011;3784;54.098;9.998;2023-06-14T02:20:44;98.70;;;93.77;;
7485;SDS011;3784;54.098;9.998;2023-06-14T02:23:10;112.80;;;107.60;;
7485;SDS011;3784;54.098;9.998;2023-06-14T02:25:37;112.40;;;107.23;;
7485;SDS011;3784;54.098;9.998;2023-06-14T02:28:03;125.87;;;120.07;;
7485;SDS011;3784;54.098;9.998;2023-06-14T02:30:30;136.83;;;130.67;;
7485;SDS011;3784;54.098;9.998;2023-06-14T02:32:57;116.00;;;110.37;;
7485;SDS011;3784;54.098;9.998;2023-06-14T02:35:24;120.63;;;115.27;;
7485;SDS011;3784;54.098;9.998;2023-06-14T02:37:53;149.23;;;142.47;;
7485;SDS011;3784;54.098;9.998;2023-06-14T02:40:19;128.37;;;122.57;;
7485;SDS011;3784;54.098;9.998;2023-06-14T02:42:46;156.20;;;148.93;;
7485;SDS011;3784;54.098;9.998;2023-06-14T02:45:13;176.37;;;168.57;;
7485;SDS011;3784;54.098;9.998;2023-06-14T02:47:39;183.37;;;175.07;;
7485;SDS011;3784;54.098;9.998;2023-06-14T02:50:06;186.07;;;177.87;;
7485;SDS011;3784;54.098;9.998;2023-06-14T02:52:33;161.13;;;153.83;;
7485;SDS011;3784;54.098;9.998;2023-06-14T02:55:00;177.80;;;169.90;;
7485;SDS011;3784;54.098;9.998;2023-06-14T02:57:26;187.30;;;178.83;;
7485;SDS011;3784;54.098;9.998;2023-06-14T02:59:53;141.73;;;135.03;;
7485;SDS011;3784;54.098;9.998;2023-06-14T03:02:19;163.03;;;155.60;;
7485;SDS011;3784;54.098;9.998;2023-06-14T03:04:46;185.07;;;176.77;;
7485;SDS011;3784;54.098;9.998;2023-06-14T03:07:13;189.20;;;181.00;;
7485;SDS011;3784;54.098;9.998;2023-06-14T03:09:46;177.33;;;169.40;;
7485;SDS011;3784;54.098;9.998;2023-06-14T03:12:14;178.97;;;171.30;;
7485;SDS011;3784;54.098;9.998;2023-06-14T03:14:41;174.07;;;166.47;;
7485;SDS011;3784;54.098;9.998;2023-06-14T03:17:08;143.23;;;136.90;;
7485;SDS011;3784;54.098;9.998;2023-06-14T03:19:36;131.93;;;125.77;;
7485;SDS011;3784;54.098;9.998;2023-06-14T03:22:02;128.93;;;123.00;;
7485;SDS011;3784;54.098;9.998;2023-06-14T03:24:29;131.23;;;125.33;;
7485;SDS011;3784;54.098;9.998;2023-06-14T03:27:03;135.47;;;129.40;;
7485;SDS011;3784;54.098;9.998;2023-06-14T03:29:29;132.83;;;126.73;;
7485;SDS011;3784;54.098;9.998;2023-06-14T03:31:57;139.73;;;133.17;;
7485;SDS011;3784;54.098;9.998;2023-06-14T03:34:25;130.37;;;124.57;;
7485;SDS011;3784;54.098;9.998;2023-06-14T03:36:52;131.27;;;125.20;;
7485;SDS011;3784;54.098;9.998;2023-06-14T03:39:19;127.40;;;121.73;;
7485;SDS011;3784;54.098;9.998;2023-06-14T03:41:46;132.97;;;126.47;;
7485;SDS011;3784;54.098;9.998;2023-06-14T03:44:16;121.93;;;116.17;;
7485;SDS011;3784;54.098;9.998;2023-06-14T03:46:47;124.90;;;119.10;;
7485;SDS011;3784;54.098;9.998;2023-06-14T03:49:14;122.13;;;116.50;;
7485;SDS011;3784;54.098;9.998;2023-06-14T03:51:42;121.23;;;115.60;;
7485;SDS011;3784;54.098;9.998;2023-06-14T03:54:09;121.40;;;115.77;;
7485;SDS011;3784;54.098;9.998;2023-06-14T03:56:55;113.30;;;108.00;;
7485;SDS011;3784;54.098;9.998;2023-06-14T03:59:23;111.23;;;106.03;;
7485;SDS011;3784;54.098;9.998;2023-06-14T04:01:50;115.93;;;110.73;;
7485;SDS011;3784;54.098;9.998;2023-06-14T04:04:16;115.70;;;110.57;;
7485;SDS011;3784;54.098;9.998;2023-06-14T04:06:43;108.80;;;103.80;;
7485;SDS011;3784;54.098;9.998;2023-06-14T04:09:09;114.77;;;109.57;;
7485;SDS011;3784;54.098;9.998;2023-06-14T04:11:36;99.67;;;94.67;;
7485;SDS011;3784;54.098;9.998;2023-06-14T04:14:02;108.00;;;102.90;;
7485;SDS011;3784;54.098;9.998;2023-06-14T04:16:29;94.77;;;90.30;;
7485;SDS011;3784;54.098;9.998;2023-06-14T04:18:55;95.90;;;91.40;;
7485;SDS011;3784;54.098;9.998;2023-06-14T04:21:24;83.50;;;79.30;;
7485;SDS011;3784;54.098;9.998;2023-06-14T04:23:52;77.83;;;74.07;;
7485;SDS011;3784;54.098;9.998;2023-06-14T04:26:19;80.83;;;77.13;;
7485;SDS011;3784;54.098;9.998;2023-06-14T04:28:48;75.23;;;71.23;;
7485;SDS011;3784;54.098;9.998;2023-06-14T04:31:17;79.23;;;75.53;;
7485;SDS011;3784;54.098;9.998;2023-06-14T04:33:44;71.10;;;67.67;;
7485;SDS011;3784;54.098;9.998;2023-06-14T04:36:13;71.77;;;68.33;;
7485;SDS011;3784;54.098;9.998;2023-06-14T04:42:29;79.27;;;75.50;;
7485;SDS011;3784;54.098;9.998;2023-06-14T04:44:57;72.37;;;68.80;;
7485;SDS011;3784;54.098;9.998;2023-06-14T04:47:24;78.27;;;74.47;;
7485;SDS011;3784;54.098;9.998;2023-06-14T04:49:59;90.17;;;85.97;;
7485;SDS011;3784;54.098;9.998;2023-06-14T04:52:27;80.30;;;76.13;;
7485;SDS011;3784;54.098;9.998;2023-06-14T04:54:55;95.30;;;90.90;;
7485;SDS011;3784;54.098;9.998;2023-06-14T04:57:22;105.47;;;100.50;;
7485;SDS011;3784;54.098;9.998;2023-06-14T04:59:51;95.70;;;91.27;;
7485;SDS011;3784;54.098;9.998;2023-06-14T05:02:22;103.60;;;98.93;;
7485;SDS011;3784;54.098;9.998;2023-06-14T05:04:50;91.47;;;87.37;;
7485;SDS011;3784;54.098;9.998;2023-06-14T05:07:16;96.50;;;91.83;;
7485;SDS011;3784;54.098;9.998;2023-06-14T05:09:44;94.70;;;90.33;;
7485;SDS011;3784;54.098;9.998;2023-06-14T05:12:11;69.97;;;66.53;;
7485;SDS011;3784;54.098;9.998;2023-06-14T05:14:37;59.67;;;56.77;;
7485;SDS011;3784;54.098;9.998;2023-06-14T05:17:04;61.67;;;58.43;;
7485;SDS011;3784;54.098;9.998;2023-06-14T05:19:31;74.70;;;71.03;;
7485;SDS011;3784;54.098;9.998;2023-06-14T05:21:57;43.17;;;40.70;;
7485;SDS011;3784;54.098;9.998;2023-06-14T05:24:24;38.93;;;36.43;;
7485;SDS011;3784;54.098;9.998;2023-06-14T05:26:51;39.47;;;37.33;;
7485;SDS011;3784;54.098;9.998;2023-06-14T05:29:18;39.80;;;37.57;;
7485;SDS011;3784;54.098;9.998;2023-06-14T05:31:44;33.13;;;31.43;;
7485;SDS011;3784;54.098;9.998;2023-06-14T05:34:11;32.10;;;30.40;;
7485;SDS011;3784;54.098;9.998;2023-06-14T05:36:38;32.73;;;30.50;;
7485;SDS011;3784;54.098;9.998;2023-06-14T05:39:05;27.83;;;26.07;;
7485;SDS011;3784;54.098;9.998;2023-06-14T05:41:32;24.23;;;22.63;;
7485;SDS011;3784;54.098;9.998;2023-06-14T05:43:59;26.70;;;24.90;;
7485;SDS011;3784;54.098;9.998;2023-06-14T05:46:26;26.57;;;24.97;;
7485;SDS011;3784;54.098;9.998;2023-06-14T05:48:53;24.63;;;23.17;;
7485;SDS011;3784;54.098;9.998;2023-06-14T05:51:21;24.63;;;23.00;;
7485;SDS011;3784;54.098;9.998;2023-06-14T05:53:48;25.87;;;24.10;;
7485;SDS011;3784;54.098;9.998;2023-06-14T05:56:15;28.13;;;26.53;;
7485;SDS011;3784;54.098;9.998;2023-06-14T05:58:47;26.60;;;24.90;;
7485;SDS011;3784;54.098;9.998;2023-06-14T06:01:14;28.13;;;26.63;;
7485;SDS011;3784;54.098;9.998;2023-06-14T06:03:41;25.07;;;23.57;;
7485;SDS011;3784;54.098;9.998;2023-06-14T06:06:08;27.97;;;26.33;;
7485;SDS011;3784;54.098;9.998;2023-06-14T06:08:34;27.87;;;25.97;;
7485;SDS011;3784;54.098;9.998;2023-06-14T06:11:01;28.30;;;26.27;;
7485;SDS011;3784;54.098;9.998;2023-06-14T06:13:28;29.80;;;28.03;;
7485;SDS011;3784;54.098;9.998;2023-06-14T06:15:54;41.20;;;38.97;;
7485;SDS011;3784;54.098;9.998;2023-06-14T06:18:22;28.73;;;26.73;;
7485;SDS011;3784;54.098;9.998;2023-06-14T06:20:49;27.37;;;25.67;;
7485;SDS011;3784;54.098;9.998;2023-06-14T06:23:16;31.03;;;29.30;;
7485;SDS011;3784;54.098;9.998;2023-06-14T06:25:48;28.10;;;26.50;;
7485;SDS011;3784;54.098;9.998;2023-06-14T06:28:14;27.90;;;26.30;;
7485;SDS011;3784;54.098;9.998;2023-06-14T06:30:42;24.87;;;23.20;;
7485;SDS011;3784;54.098;9.998;2023-06-14T06:33:09;26.90;;;25.03;;
7485;SDS011;3784;54.098;9.998;2023-06-14T06:35:36;22.63;;;21.13;;
7485;SDS011;3784;54.098;9.998;2023-06-14T06:38:03;23.47;;;21.87;;
7485;SDS011;3784;54.098;9.998;2023-06-14T06:40:30;23.63;;;22.23;;
7485;SDS011;3784;54.098;9.998;2023-06-14T06:42:56;21.63;;;20.27;;
7485;SDS011;3784;54.098;9.998;2023-06-14T06:45:23;20.30;;;18.97;;
7485;SDS011;3784;54.098;9.998;2023-06-14T06:47:51;21.67;;;20.27;;
7485;SDS011;3784;54.098;9.998;2023-06-14T06:50:18;19.90;;;18.80;;
7485;SDS011;3784;54.098;9.998;2023-06-14T06:52:46;20.17;;;18.67;;
7485;SDS011;3784;54.098;9.998;2023-06-14T06:55:13;20.87;;;19.70;;
7485;SDS011;3784;54.098;9.998;2023-06-14T06:57:40;23.43;;;21.73;;
7485;SDS011;3784;54.098;9.998;2023-06-14T07:00:07;27.50;;;25.90;;
7485;SDS011;3784;54.098;9.998;2023-06-14T07:02:35;24.20;;;22.73;;
7485;SDS011;3784;54.098;9.998;2023-06-14T07:05:03;20.33;;;18.80;;
7485;SDS011;3784;54.098;9.998;2023-06-14T07:07:29;21.37;;;20.17;;
7485;SDS011;3784;54.098;9.998;2023-06-14T07:09:56;18.67;;;17.57;;
7485;SDS011;3784;54.098;9.998;2023-06-14T07:12:23;17.67;;;16.40;;
7485;SDS011;3784;54.098;9.998;2023-06-14T07:14:50;15.67;;;14.77;;
7485;SDS011;3784;54.098;9.998;2023-06-14T07:17:23;15.90;;;14.47;;
7485;SDS011;3784;54.098;9.998;2023-06-14T07:20:00;15.37;;;14.47;;
7485;SDS011;3784;54.098;9.998;2023-06-14T07:22:57;14.67;;;13.70;;
7485;SDS011;3784;54.098;9.998;2023-06-14T07:25:33;12.20;;;11.40;;
7485;SDS011;3784;54.098;9.998;2023-06-14T07:28:02;13.23;;;12.37;;
7485;SDS011;3784;54.098;9.998;2023-06-14T07:30:28;16.80;;;15.90;;
7485;SDS011;3784;54.098;9.998;2023-06-14T07:32:56;14.53;;;13.67;;
7485;SDS011;3784;54.098;9.998;2023-06-14T07:35:23;14.03;;;13.23;;
7485;SDS011;3784;54.098;9.998;2023-06-14T07:37:54;13.77;;;12.87;;
7485;SDS011;3784;54.098;9.998;2023-06-14T07:40:21;16.53;;;15.23;;
7485;SDS011;3784;54.098;9.998;2023-06-14T07:46:01;16.63;;;15.57;;
7485;SDS011;3784;54.098;9.998;2023-06-14T07:48:33;18.53;;;17.53;;
7485;SDS011;3784;54.098;9.998;2023-06-14T07:51:38;19.73;;;18.53;;
7485;SDS011;3784;54.098;9.998;2023-06-14T07:54:16;16.07;;;15.10;;
7485;SDS011;3784;54.098;9.998;2023-06-14T07:56:55;17.77;;;16.77;;
7485;SDS011;3784;54.098;9.998;2023-06-14T07:59:25;16.93;;;15.97;;
7485;SDS011;3784;54.098;9.998;2023-06-14T08:02:10;15.60;;;14.60;;
7485;SDS011;3784;54.098;9.998;2023-06-14T08:04:37;16.87;;;15.70;;
7485;SDS011;3784;54.098;9.998;2023-06-14T08:07:06;14.63;;;13.83;;
7485;SDS011;3784;54.098;9.998;2023-06-14T08:09:38;16.70;;;15.60;;
7485;SDS011;3784;54.098;9.998;2023-06-14T08:12:08;14.27;;;13.17;;
7485;SDS011;3784;54.098;9.998;2023-06-14T08:14:37;20.70;;;19.53;;
7485;SDS011;3784;54.098;9.998;2023-06-14T08:17:05;13.83;;;13.03;;
7485;SDS011;3784;54.098;9.998;2023-06-14T08:19:55;15.43;;;14.43;;
7485;SDS011;3784;54.098;9.998;2023-06-14T08:22:31;19.33;;;18.20;;
7485;SDS011;3784;54.098;9.998;2023-06-14T08:25:00;17.83;;;16.67;;
7485;SDS011;3784;54.098;9.998;2023-06-14T08:27:30;22.60;;;21.20;;
7485;SDS011;3784;54.098;9.998;2023-06-14T08:29:56;24.33;;;22.83;;
7485;SDS011;3784;54.098;9.998;2023-06-14T08:32:34;18.27;;;16.97;;
7485;SDS011;3784;54.098;9.998;2023-06-14T08:35:01;18.40;;;17.43;;
7485;SDS011;3784;54.098;9.998;2023-06-14T08:37:31;13.40;;;12.50;;
7485;SDS011;3784;54.098;9.998;2023-06-14T08:40:05;20.57;;;19.50;;
7485;SDS011;3784;54.098;9.998;2023-06-14T08:42:35;19.57;;;18.47;;
7485;SDS011;3784;54.098;9.998;2023-06-14T08:45:06;18.23;;;17.07;;
7485;SDS011;3784;54.098;9.998;2023-06-14T08:47:35;16.03;;;15.03;;
7485;SDS011;3784;54.098;9.998;2023-06-14T08:50:07;21.37;;;20.17;;
7485;SDS011;3784;54.098;9.998;2023-06-14T08:52:57;17.17;;;16.07;;
7485;SDS011;3784;54.098;9.998;2023-06-14T08:55:28;17.37;;;16.17;;
7485;SDS011;3784;54.098;9.998;2023-06-14T08:57:59;23.27;;;22.00;;
7485;SDS011;3784;54.098;9.998;2023-06-14T09:00:26;13.40;;;12.60;;
7485;SDS011;3784;54.098;9.998;2023-06-14T09:02:54;18.80;;;17.17;;
7485;SDS011;3784;54.098;9.998;2023-06-14T09:05:25;17.93;;;16.97;;
7485;SDS011;3784;54.098;9.998;2023-06-14T09:07:53;16.80;;;15.90;;
7485;SDS011;3784;54.098;9.998;2023-06-14T09:10:23;36.00;;;25.47;;
7485;SDS011;3784;54.098;9.998;2023-06-14T09:12:53;15.10;;;14.00;;
7485;SDS011;3784;54.098;9.998;2023-06-14T09:15:20;20.73;;;19.47;;
7485;SDS011;3784;54.098;9.998;2023-06-14T09:17:47;20.30;;;19.13;;
7485;SDS011;3784;54.098;9.998;2023-06-14T09:20:14;16.17;;;15.37;;
7485;SDS011;3784;54.098;9.998;2023-06-14T09:22:45;14.37;;;13.43;;
7485;SDS011;3784;54.098;9.998;2023-06-14T09:25:12;22.50;;;21.23;;
7485;SDS011;3784;54.098;9.998;2023-06-14T09:27:58;15.07;;;14.27;;
7485;SDS011;3784;54.098;9.998;2023-06-14T09:30:25;26.20;;;24.80;;
7485;SDS011;3784;54.098;9.998;2023-06-14T09:32:52;21.33;;;20.03;;
7485;SDS011;3784;54.098;9.998;2023-06-14T09:35:20;20.00;;;19.03;;
7485;SDS011;3784;54.098;9.998;2023-06-14T09:37:46;16.17;;;14.87;;
7485;SDS011;3784;54.098;9.998;2023-06-14T09:40:13;24.10;;;22.73;;
7485;SDS011;3784;54.098;9.998;2023-06-14T09:42:47;23.97;;;22.50;;
7485;SDS011;3784;54.098;9.998;2023-06-14T09:45:14;18.73;;;17.67;;
7485;SDS011;3784;54.098;9.998;2023-06-14T09:47:45;21.67;;;20.40;;
7485;SDS011;3784;54.098;9.998;2023-06-14T09:50:31;45.13;;;42.70;;
7485;SDS011;3784;54.098;9.998;2023-06-14T09:52:59;15.63;;;14.67;;
7485;SDS011;3784;54.098;9.998;2023-06-14T09:55:29;18.77;;;17.53;;
7485;SDS011;3784;54.098;9.998;2023-06-14T09:57:57;16.00;;;14.90;;
7485;SDS011;3784;54.098;9.998;2023-06-14T10:00:24;33.60;;;31.77;;
7485;SDS011;3784;54.098;9.998;2023-06-14T10:02:54;14.07;;;13.13;;
7485;SDS011;3784;54.098;9.998;2023-06-14T10:05:25;13.97;;;13.07;;
7485;SDS011;3784;54.098;9.998;2023-06-14T10:08:04;19.77;;;18.60;;
7485;SDS011;3784;54.098;9.998;2023-06-14T10:10:31;16.23;;;15.30;;
7485;SDS011;3784;54.098;9.998;2023-06-14T10:12:58;19.37;;;18.10;;
7485;SDS011;3784;54.098;9.998;2023-06-14T10:15:32;31.13;;;29.17;;
7485;SDS011;3784;54.098;9.998;2023-06-14T10:18:02;19.70;;;18.60;;
7485;SDS011;3784;54.098;9.998;2023-06-14T10:20:42;17.13;;;16.03;;
7485;SDS011;3784;54.098;9.998;2023-06-14T10:23:18;15.03;;;13.90;;
7485;SDS011;3784;54.098;9.998;2023-06-14T10:25:49;15.13;;;14.23;;
7485;SDS011;3784;54.098;9.998;2023-06-14T10:28:17;15.40;;;14.37;;
7485;SDS011;3784;54.098;9.998;2023-06-14T10:31:07;15.30;;;14.13;;
7485;SDS011;3784;54.098;9.998;2023-06-14T10:33:39;14.73;;;13.63;;
7485;SDS011;3784;54.098;9.998;2023-06-14T10:41:26;18.33;;;17.10;;
7485;SDS011;3784;54.098;9.998;2023-06-14T10:46:39;25.33;;;23.83;;
7485;SDS011;3784;54.098;9.998;2023-06-14T10:49:09;63.80;;;58.40;;
7485;SDS011;3784;54.098;9.998;2023-06-14T10:51:41;24.07;;;22.67;;
7485;SDS011;3784;54.098;9.998;2023-06-14T10:54:12;28.50;;;26.97;;
7485;SDS011;3784;54.098;9.998;2023-06-14T10:56:49;49.20;;;45.77;;
7485;SDS011;3784;54.098;9.998;2023-06-14T10:59:17;29.97;;;28.27;;
7485;SDS011;3784;54.098;9.998;2023-06-14T11:07:28;28.93;;;27.57;;
7485;SDS011;3784;54.098;9.998;2023-06-14T11:13:07;31.60;;;29.80;;
7485;SDS011;3784;54.098;9.998;2023-06-14T11:15:36;33.43;;;31.43;;
7485;SDS011;3784;54.098;9.998;2023-06-14T11:18:07;29.20;;;27.63;;
7485;SDS011;3784;54.098;9.998;2023-06-14T11:20:35;35.33;;;33.37;;
7485;SDS011;3784;54.098;9.998;2023-06-14T11:23:02;30.03;;;28.37;;
7485;SDS011;3784;54.098;9.998;2023-06-14T11:25:30;31.07;;;29.30;;
7485;SDS011;3784;54.098;9.998;2023-06-14T11:27:57;23.57;;;22.33;;
7485;SDS011;3784;54.098;9.998;2023-06-14T11:30:25;32.40;;;30.70;;
7485;SDS011;3784;54.098;9.998;2023-06-14T11:32:52;49.93;;;47.57;;
7485;SDS011;3784;54.098;9.998;2023-06-14T11:35:24;28.40;;;26.60;;
7485;SDS011;3784;54.098;9.998;2023-06-14T11:37:55;23.80;;;22.50;;
7485;SDS011;3784;54.098;9.998;2023-06-14T11:40:23;25.83;;;24.43;;
7485;SDS011;3784;54.098;9.998;2023-06-14T11:42:54;23.43;;;22.23;;
7485;SDS011;3784;54.098;9.998;2023-06-14T11:45:24;33.50;;;31.40;;
7485;SDS011;3784;54.098;9.998;2023-06-14T11:47:51;24.30;;;23.17;;
7485;SDS011;3784;54.098;9.998;2023-06-14T11:50:18;58.97;;;55.83;;
7485;SDS011;3784;54.098;9.998;2023-06-14T11:52:44;19.53;;;18.50;;
7485;SDS011;3784;54.098;9.998;2023-06-14T11:55:11;43.93;;;41.47;;
7485;SDS011;3784;54.098;9.998;2023-06-14T11:57:38;21.13;;;20.03;;
7485;SDS011;3784;54.098;9.998;2023-06-14T12:00:08;20.47;;;19.00;;
7485;SDS011;3784;54.098;9.998;2023-06-14T12:02:38;18.93;;;17.83;;
7485;SDS011;3784;54.098;9.998;2023-06-14T12:05:07;15.57;;;14.60;;
7485;SDS011;3784;54.098;9.998;2023-06-14T12:07:37;21.10;;;19.90;;
7485;SDS011;3784;54.098;9.998;2023-06-14T12:10:04;16.03;;;14.47;;
7485;SDS011;3784;54.098;9.998;2023-06-14T12:12:35;15.37;;;14.17;;
7485;SDS011;3784;54.098;9.998;2023-06-14T12:15:07;23.00;;;21.57;;
7485;SDS011;3784;54.098;9.998;2023-06-14T12:17:36;13.07;;;12.23;;
7485;SDS011;3784;54.098;9.998;2023-06-14T12:20:05;19.47;;;18.47;;
7485;SDS011;3784;54.098;9.998;2023-06-14T12:22:47;16.13;;;15.10;;
7485;SDS011;3784;54.098;9.998;2023-06-14T12:25:30;15.17;;;13.87;;
7485;SDS011;3784;54.098;9.998;2023-06-14T12:30:31;27.90;;;26.27;;
7485;SDS011;3784;54.098;9.998;2023-06-14T12:32:58;13.37;;;12.53;;
7485;SDS011;3784;54.098;9.998;2023-06-14T12:35:27;19.03;;;17.77;;
7485;SDS011;3784;54.098;9.998;2023-06-14T12:37:53;16.27;;;15.27;;
7485;SDS011;3784;54.098;9.998;2023-06-14T12:40:21;22.53;;;21.37;;
7485;SDS011;3784;54.098;9.998;2023-06-14T12:42:47;32.00;;;29.70;;
7485;SDS011;3784;54.098;9.998;2023-06-14T12:45:14;29.40;;;27.47;;
7485;SDS011;3784;54.098;9.998;2023-06-14T12:47:42;13.40;;;12.63;;
7485;SDS011;3784;54.098;9.998;2023-06-14T12:50:08;14.70;;;13.87;;
7485;SDS011;3784;54.098;9.998;2023-06-14T12:52:35;12.90;;;12.10;;
7485;SDS011;3784;54.098;9.998;2023-06-14T12:55:03;12.53;;;11.93;;
7485;SDS011;3784;54.098;9.998;2023-06-14T12:57:30;19.40;;;18.27;;
7485;SDS011;3784;54.098;9.998;2023-06-14T12:59:59;13.47;;;12.40;;
7485;SDS011;3784;54.098;9.998;2023-06-14T13:02:26;13.57;;;12.67;;
7485;SDS011;3784;54.098;9.998;2023-06-14T13:04:53;15.13;;;14.13;;
7485;SDS011;3784;54.098;9.998;2023-06-14T13:07:20;14.03;;;13.27;;
7485;SDS011;3784;54.098;9.998;2023-06-14T13:09:46;21.63;;;20.27;;
7485;SDS011;3784;54.098;9.998;2023-06-14T13:12:13;16.63;;;15.70;;
7485;SDS011;3784;54.098;9.998;2023-06-14T13:14:40;20.47;;;19.13;;
7485;SDS011;3784;54.098;9.998;2023-06-14T13:17:10;14.80;;;13.90;;
7485;SDS011;3784;54.098;9.998;2023-06-14T13:19:37;17.43;;;16.37;;
7485;SDS011;3784;54.098;9.998;2023-06-14T13:22:03;45.03;;;42.30;;
7485;SDS011;3784;54.098;9.998;2023-06-14T13:24:30;13.10;;;12.30;;
7485;SDS011;3784;54.098;9.998;2023-06-14T13:26:57;13.73;;;12.83;;
7485;SDS011;3784;54.098;9.998;2023-06-14T13:29:24;32.13;;;30.47;;
7485;SDS011;3784;54.098;9.998;2023-06-14T13:31:51;15.23;;;14.10;;
7485;SDS011;3784;54.098;9.998;2023-06-14T13:34:17;11.87;;;11.07;;
7485;SDS011;3784;54.098;9.998;2023-06-14T13:36:48;20.20;;;18.80;;
7485;SDS011;3784;54.098;9.998;2023-06-14T13:39:23;17.13;;;16.00;;
7485;SDS011;3784;54.098;9.998;2023-06-14T13:41:58;11.17;;;10.47;;
7485;SDS011;3784;54.098;9.998;2023-06-14T13:44:26;11.67;;;10.97;;
7485;SDS011;3784;54.098;9.998;2023-06-14T13:46:53;17.70;;;16.67;;
7485;SDS011;3784;54.098;9.998;2023-06-14T13:49:19;11.83;;;11.07;;
7485;SDS011;3784;54.098;9.998;2023-06-14T13:51:46;12.40;;;11.60;;
7485;SDS011;3784;54.098;9.998;2023-06-14T13:54:13;22.23;;;20.60;;
7485;SDS011;3784;54.098;9.998;2023-06-14T13:56:42;16.83;;;15.90;;
7485;SDS011;3784;54.098;9.998;2023-06-14T13:59:12;12.77;;;12.03;;
7485;SDS011;3784;54.098;9.998;2023-06-14T14:01:39;12.30;;;11.50;;
7485;SDS011;3784;54.098;9.998;2023-06-14T14:04:06;12.40;;;11.70;;
7485;SDS011;3784;54.098;9.998;2023-06-14T14:06:33;12.20;;;11.40;;
7485;SDS011;3784;54.098;9.998;2023-06-14T14:09:00;12.37;;;11.67;;
7485;SDS011;3784;54.098;9.998;2023-06-14T14:11:26;11.97;;;10.90;;
7485;SDS011;3784;54.098;9.998;2023-06-14T14:13:57;12.23;;;11.30;;
7485;SDS011;3784;54.098;9.998;2023-06-14T14:16:24;12.73;;;11.90;;
7485;SDS011;3784;54.098;9.998;2023-06-14T14:18:54;12.10;;;11.40;;
7485;SDS011;3784;54.098;9.998;2023-06-14T14:21:20;14.63;;;13.73;;
7485;SDS011;3784;54.098;9.998;2023-06-14T14:23:47;13.40;;;12.67;;
7485;SDS011;3784;54.098;9.998;2023-06-14T14:26:15;21.07;;;19.90;;
7485;SDS011;3784;54.098;9.998;2023-06-14T14:28:42;13.03;;;12.17;;
7485;SDS011;3784;54.098;9.998;2023-06-14T14:31:09;12.03;;;11.13;;
7485;SDS011;3784;54.098;9.998;2023-06-14T14:33:35;19.97;;;18.20;;
7485;SDS011;3784;54.098;9.998;2023-06-14T14:36:02;12.67;;;11.87;;
7485;SDS011;3784;54.098;9.998;2023-06-14T14:38:30;14.33;;;13.60;;
7485;SDS011;3784;54.098;9.998;2023-06-14T14:40:57;12.90;;;11.93;;
7485;SDS011;3784;54.098;9.998;2023-06-14T14:43:23;21.40;;;20.10;;
7485;SDS011;3784;54.098;9.998;2023-06-14T14:45:50;15.20;;;14.07;;
7485;SDS011;3784;54.098;9.998;2023-06-14T14:48:17;14.40;;;13.40;;
7485;SDS011;3784;54.098;9.998;2023-06-14T14:50:43;45.73;;;42.13;;
7485;SDS011;3784;54.098;9.998;2023-06-14T14:53:10;32.47;;;30.57;;
7485;SDS011;3784;54.098;9.998;2023-06-14T14:55:37;12.47;;;11.57;;
7485;SDS011;3784;54.098;9.998;2023-06-14T14:58:05;10.83;;;9.93;;
7485;SDS011;3784;54.098;9.998;2023-06-14T15:00:33;12.43;;;11.13;;
7485;SDS011;3784;54.098;9.998;2023-06-14T15:03:00;12.20;;;11.37;;
7485;SDS011;3784;54.098;9.998;2023-06-14T15:05:26;10.97;;;10.17;;
7485;SDS011;3784;54.098;9.998;2023-06-14T15:07:53;15.80;;;14.93;;
7485;SDS011;3784;54.098;9.998;2023-06-14T15:10:20;13.73;;;12.73;;
7485;SDS011;3784;54.098;9.998;2023-06-14T15:12:47;15.60;;;14.80;;
7485;SDS011;3784;54.098;9.998;2023-06-14T15:15:14;13.40;;;12.37;;
7485;SDS011;3784;54.098;9.998;2023-06-14T15:17:41;21.70;;;19.77;;
7485;SDS011;3784;54.098;9.998;2023-06-14T15:20:11;22.93;;;21.57;;
7485;SDS011;3784;54.098;9.998;2023-06-14T15:22:40;53.37;;;49.87;;